Strona główna
METAR-TAF:

METAR-TAF

Lotnisko :

Port lotniczy Jyväskylä

Jyväskylä, Finlandia

Szerokość geograficzna: 62-24N, Długość geograficzna: 025-41E, wysokość: 141 m

Aktualna obserwacja pogody

Raport powstał 10 minut temu, godzina 22:50 UTC
Wiatr 6 kt od północ
Temperatura 9°C
Wilgotność 57%
Ciśnienie 1030 hPa
Widzialność 10 km lub więcej
Brak chmur poniżej 1500 m i brak chmur cumulonimbus

METAR: EFJY 302250Z AUTO 35006KT CAVOK 09/01 Q1030

czas: 02:00 (23:00 UTC)

Prognoza

Raport powstał 2 godziny i 36 minut temu, godzina 20:24 UTC
Prognoza ważna od 30 godzina 21 UTC do 31 godzina 21 UTC
Wiatr 5 kt od północ
Widzialność 10 km lub więcej
Brak chmur poniżej 1500 m i brak chmur cumulonimbus

TAF: EFJY 302024Z 3021/3121 36005KT CAVOK

Obserwacja i prognoza pogody dla ponad 4000 lotnisk (raport METAR i TAF).

Dostępne stacje oznaczono żółtymi i czerwonymi punktami na mapie.

Najedź kursorem aby zobaczyć nazwę stacji.

Kliknij aby zobaczyć obserwacje i prognozy pogody.

Aby zmienić mapę: kliknij na zielony przycisk z czarnym krzyżykiem, aby powiększyć; na zielony przycisk z myślnikiem, aby pomniejszyć; na zielone strzałki, aby przejść do map sąsiednich.


METAR-TAF: